createdAt,value
2017-08-01T00:01:40.824Z,4.43
2017-08-01T00:04:08.331Z,4.43
2017-08-01T00:06:35.849Z,3.83
2017-08-01T00:09:03.348Z,4.23
2017-08-01T00:11:30.833Z,4.20
2017-08-01T00:13:58.373Z,4.10
2017-08-01T00:16:25.851Z,4.67
2017-08-01T00:18:53.370Z,4.80
2017-08-01T00:21:21.602Z,4.67
2017-08-01T00:23:49.079Z,4.60
2017-08-01T00:26:16.579Z,4.40
2017-08-01T00:28:44.052Z,4.70
2017-08-01T00:31:11.537Z,4.57
2017-08-01T00:33:39.033Z,4.63
2017-08-01T00:36:07.359Z,6.00
2017-08-01T00:38:34.853Z,5.73
2017-08-01T00:41:02.329Z,5.00
2017-08-01T00:43:30.584Z,5.17
2017-08-01T00:45:58.212Z,5.50
2017-08-01T00:48:25.677Z,5.00
2017-08-01T00:50:53.193Z,5.30
2017-08-01T00:53:21.432Z,5.50
2017-08-01T00:55:48.908Z,4.70
2017-08-01T00:58:16.410Z,5.50
2017-08-01T01:00:43.885Z,4.43
2017-08-01T01:03:11.384Z,5.30
2017-08-01T01:05:38.884Z,4.30
2017-08-01T01:08:06.360Z,4.67
2017-08-01T01:10:33.838Z,4.30
2017-08-01T01:13:01.318Z,4.80
2017-08-01T01:15:29.568Z,4.00
2017-08-01T01:17:57.064Z,4.50
2017-08-01T01:20:25.319Z,4.40
2017-08-01T01:22:52.803Z,4.83
2017-08-01T01:25:21.037Z,4.50
2017-08-01T01:27:48.558Z,4.67
2017-08-01T01:30:16.038Z,4.10
2017-08-01T01:32:43.548Z,4.97
2017-08-01T01:35:11.820Z,5.03
2017-08-01T01:37:40.064Z,4.77
2017-08-01T01:40:07.588Z,4.93
2017-08-01T01:42:35.104Z,4.50
2017-08-01T01:45:02.608Z,6.13
2017-08-01T01:47:30.084Z,4.50
2017-08-01T01:49:57.568Z,4.77
2017-08-01T01:52:25.081Z,4.30
2017-08-01T01:54:52.554Z,4.53
2017-08-01T01:57:20.049Z,4.77
2017-08-01T01:59:47.563Z,4.90
2017-08-01T02:02:15.034Z,4.57
2017-08-01T02:04:42.506Z,4.07
2017-08-01T02:07:10.015Z,5.23
2017-08-01T02:09:37.532Z,3.93
2017-08-01T02:12:05.030Z,3.80
2017-08-01T02:14:33.301Z,4.83
2017-08-01T02:17:01.541Z,5.33
2017-08-01T02:19:29.036Z,4.50
2017-08-01T02:21:57.281Z,4.17
2017-08-01T02:24:24.774Z,4.97
2017-08-01T02:26:53.019Z,4.03
2017-08-01T02:29:20.497Z,5.27
2017-08-01T02:31:48.749Z,6.67
2017-08-01T02:34:16.230Z,5.53
2017-08-01T02:36:43.703Z,6.60
2017-08-01T02:39:11.219Z,12.80
2017-08-01T02:41:38.701Z,15.23
2017-08-01T02:44:06.951Z,18.70
2017-08-01T02:46:35.369Z,25.77
2017-08-01T02:49:02.846Z,25.73
2017-08-01T02:51:30.738Z,27.40
2017-08-01T02:53:58.244Z,29.47
2017-08-01T02:56:25.748Z,30.20
2017-08-01T02:58:53.241Z,30.80
2017-08-01T03:01:20.730Z,30.10
2017-08-01T03:03:48.224Z,28.43
2017-08-01T03:06:15.719Z,27.57
2017-08-01T03:08:43.212Z,26.50
2017-08-01T03:11:10.714Z,25.57
2017-08-01T03:13:38.960Z,24.87
2017-08-01T03:16:06.461Z,23.10
2017-08-01T03:18:34.705Z,21.30
2017-08-01T03:21:02.187Z,20.13
2017-08-01T03:23:30.460Z,19.73
2017-08-01T03:25:58.708Z,20.67
2017-08-01T03:28:26.193Z,18.10
2017-08-01T03:30:54.459Z,18.43
2017-08-01T03:33:21.976Z,17.90
2017-08-01T03:35:49.471Z,17.97
2017-08-01T03:38:17.732Z,15.53
2017-08-01T03:40:45.224Z,15.53
2017-08-01T03:43:13.496Z,18.30
2017-08-01T03:45:40.977Z,15.90
2017-08-01T03:48:08.476Z,15.73
2017-08-01T03:50:35.953Z,14.97
2017-08-01T03:53:03.436Z,16.23
2017-08-01T03:55:31.709Z,17.90
2017-08-01T03:57:59.184Z,15.30
2017-08-01T04:00:27.419Z,16.40
2017-08-01T04:02:54.928Z,15.37
2017-08-01T04:05:22.439Z,17.60
2017-08-01T04:07:49.965Z,14.57
2017-08-01T04:10:17.479Z,17.13
2017-08-01T04:12:45.755Z,15.17
2017-08-01T04:15:13.237Z,15.60
2017-08-01T04:17:40.715Z,15.00
2017-08-01T04:20:08.213Z,15.00
2017-08-01T04:22:35.690Z,15.67
2017-08-01T04:25:03.952Z,15.73
2017-08-01T04:27:31.440Z,13.93
2017-08-01T04:29:58.939Z,13.50
2017-08-01T04:32:26.434Z,14.10
2017-08-01T04:34:53.921Z,14.47
2017-08-01T04:37:21.420Z,13.87
2017-08-01T04:39:50.136Z,13.67
2017-08-01T04:42:18.629Z,12.53
2017-08-01T04:44:58.726Z,11.80
2017-08-01T04:47:26.389Z,11.13
2017-08-01T04:49:54.112Z,11.43
2017-08-01T04:52:22.392Z,10.83
2017-08-01T04:54:50.652Z,10.33
2017-08-01T04:57:18.925Z,10.40
2017-08-01T04:59:46.478Z,10.00
2017-08-01T05:02:14.949Z,10.33
2017-08-01T05:04:43.193Z,9.60
2017-08-01T05:07:11.893Z,8.20
2017-08-01T05:09:40.202Z,8.13
2017-08-01T05:12:07.668Z,7.10
2017-08-01T05:14:35.935Z,6.70
2017-08-01T05:17:03.443Z,5.90
2017-08-01T05:19:31.712Z,6.07
2017-08-01T05:21:59.961Z,5.53
2017-08-01T05:24:27.436Z,4.80
2017-08-01T05:26:55.056Z,5.37
2017-08-01T05:29:22.532Z,5.37
2017-08-01T05:31:49.997Z,4.87
2017-08-01T05:34:17.491Z,4.93
2017-08-01T05:36:45.732Z,4.40
2017-08-01T05:39:13.209Z,4.50
2017-08-01T05:41:40.707Z,5.30
2017-08-01T05:44:08.196Z,4.70
2017-08-01T05:46:35.678Z,4.50
2017-08-01T05:49:03.156Z,5.60
2017-08-01T05:51:31.424Z,4.67
2017-08-01T05:53:59.698Z,5.30
2017-08-01T05:56:27.169Z,4.87
2017-08-01T05:58:55.459Z,5.20
2017-08-01T06:01:22.940Z,6.03
2017-08-01T06:03:50.444Z,7.50
2017-08-01T06:06:17.931Z,6.30
2017-08-01T06:08:45.432Z,6.20
2017-08-01T06:11:12.923Z,6.57
2017-08-01T06:13:40.451Z,6.03
2017-08-01T06:16:07.943Z,5.80
2017-08-01T06:18:36.184Z,6.50
2017-08-01T06:21:03.692Z,6.63
2017-08-01T06:23:31.932Z,7.17
2017-08-01T06:25:59.427Z,6.57
2017-08-01T06:28:27.676Z,5.50
2017-08-01T06:30:55.201Z,6.23
2017-08-01T06:33:22.680Z,5.00
2017-08-01T06:35:50.163Z,5.50
2017-08-01T06:38:17.671Z,5.20
2017-08-01T06:40:45.178Z,5.27
2017-08-01T06:43:12.653Z,7.17
2017-08-01T06:45:40.913Z,5.27
2017-08-01T06:48:08.380Z,5.70
2017-08-01T06:50:36.660Z,4.67
2017-08-01T06:53:04.976Z,6.00
2017-08-01T06:55:32.469Z,5.40
2017-08-01T06:57:59.992Z,5.10
2017-08-01T07:00:27.481Z,4.90
2017-08-01T07:02:54.968Z,5.30
2017-08-01T07:05:23.244Z,5.30
2017-08-01T07:07:50.715Z,5.00
2017-08-01T07:10:18.980Z,4.47
2017-08-01T07:12:47.229Z,7.00
2017-08-01T07:15:14.724Z,5.50
2017-08-01T07:17:42.964Z,4.80
2017-08-01T07:20:10.487Z,4.67
2017-08-01T07:22:37.964Z,3.43
2017-08-01T07:25:05.481Z,3.60
2017-08-01T07:27:32.976Z,4.13
2017-08-01T07:30:00.474Z,3.90
2017-08-01T07:32:27.953Z,3.80
2017-08-01T07:34:56.196Z,3.80
2017-08-01T07:37:23.677Z,3.37
2017-08-01T07:39:51.928Z,3.23
2017-08-01T07:42:19.409Z,3.40
2017-08-01T07:44:47.649Z,3.43
2017-08-01T07:47:15.219Z,3.30
2017-08-01T07:49:42.703Z,3.63
2017-08-01T07:52:10.967Z,3.50
2017-08-01T07:54:38.449Z,3.67
2017-08-01T07:57:06.681Z,3.10
2017-08-01T07:59:34.173Z,2.87
2017-08-01T08:02:02.422Z,3.03
2017-08-01T08:04:29.946Z,2.90
2017-08-01T08:06:57.417Z,3.17
2017-08-01T08:09:24.909Z,3.50
2017-08-01T08:11:52.406Z,3.60
2017-08-01T08:14:19.880Z,3.47
2017-08-01T08:16:47.368Z,2.50
2017-08-01T08:19:14.852Z,3.30
2017-08-01T08:21:43.137Z,3.10
2017-08-01T08:24:11.392Z,3.00
2017-08-01T08:26:38.865Z,3.10
2017-08-01T08:29:07.129Z,2.80
2017-08-01T08:31:34.593Z,3.03
2017-08-01T08:34:02.061Z,2.80
2017-08-01T08:36:30.307Z,2.40
2017-08-01T08:38:57.787Z,2.90
2017-08-01T08:41:25.279Z,2.23
2017-08-01T08:43:52.764Z,2.80
2017-08-01T08:46:20.241Z,2.43
2017-08-01T08:48:48.002Z,2.40
2017-08-01T08:51:15.520Z,2.80
2017-08-01T08:53:43.012Z,2.50
2017-08-01T08:56:10.516Z,2.83
2017-08-01T08:58:38.760Z,2.47
2017-08-01T09:01:06.257Z,2.60
2017-08-01T09:03:33.734Z,7.90
2017-08-01T09:06:01.228Z,3.07
2017-08-01T09:08:28.720Z,14.77
2017-08-01T09:10:56.973Z,3.47
2017-08-01T09:13:24.436Z,3.13
2017-08-01T09:15:51.908Z,3.10
2017-08-01T09:18:20.197Z,3.50
2017-08-01T09:20:48.432Z,2.80
2017-08-01T09:23:15.941Z,2.67
2017-08-01T09:25:43.425Z,11.27
2017-08-01T09:28:10.892Z,6.30
2017-08-01T09:30:38.392Z,3.87
2017-08-01T09:33:06.629Z,6.30
2017-08-01T09:35:34.103Z,2.83
2017-08-01T09:38:01.576Z,2.50
2017-08-01T09:40:29.068Z,2.07
2017-08-01T09:42:56.656Z,2.50
2017-08-01T09:45:24.134Z,5.07
2017-08-01T09:47:51.619Z,2.90
2017-08-01T09:50:19.939Z,2.67
2017-08-01T09:52:47.432Z,7.40
2017-08-01T09:55:14.900Z,2.97
2017-08-01T09:57:42.380Z,2.40
2017-08-01T10:00:10.616Z,2.30
2017-08-01T10:02:38.085Z,2.87
2017-08-01T10:05:05.613Z,3.70
2017-08-01T10:07:33.077Z,3.20
2017-08-01T10:10:00.569Z,2.20
2017-08-01T10:12:28.081Z,2.20
2017-08-01T10:14:55.604Z,2.80
2017-08-01T10:17:23.081Z,2.87
2017-08-01T10:19:50.553Z,2.63
2017-08-01T10:22:18.053Z,2.40
2017-08-01T10:24:46.300Z,2.67
2017-08-01T10:27:13.788Z,2.77
2017-08-01T10:29:41.257Z,2.30
2017-08-01T10:32:08.720Z,2.90
2017-08-01T10:34:36.977Z,2.40
2017-08-01T10:37:04.455Z,2.57
2017-08-01T10:39:32.712Z,2.50
2017-08-01T10:42:00.212Z,2.47
2017-08-01T10:44:27.681Z,3.33
2017-08-01T10:46:55.186Z,3.07
2017-08-01T10:49:22.649Z,2.80
2017-08-01T10:51:50.205Z,2.93
2017-08-01T10:54:17.714Z,3.10
2017-08-01T10:56:45.237Z,3.00
2017-08-01T10:59:13.488Z,2.87
2017-08-01T11:01:40.969Z,2.50
2017-08-01T11:04:08.433Z,2.83
2017-08-01T11:06:36.682Z,3.10
2017-08-01T11:09:04.172Z,3.77
2017-08-01T11:11:32.423Z,3.50
2017-08-01T11:13:59.898Z,3.20
2017-08-01T11:16:27.393Z,3.23
2017-08-01T11:18:54.901Z,3.30
2017-08-01T11:21:22.363Z,3.40
2017-08-01T11:23:49.836Z,3.30
2017-08-01T11:26:17.321Z,3.20
2017-08-01T11:28:44.794Z,3.10
2017-08-01T11:31:12.295Z,3.83
2017-08-01T11:33:39.761Z,3.03
2017-08-01T11:36:07.224Z,2.80
2017-08-01T11:38:35.490Z,3.00
2017-08-01T11:41:02.976Z,3.10
2017-08-01T11:43:30.476Z,3.23
2017-08-01T11:45:57.967Z,3.80
2017-08-01T11:48:25.442Z,3.40
2017-08-01T11:50:53.696Z,3.23
2017-08-01T11:53:21.190Z,3.83
2017-08-01T11:55:48.682Z,3.40
2017-08-01T11:58:16.537Z,3.37
2017-08-01T12:00:44.017Z,3.67
2017-08-01T12:03:11.529Z,3.40
2017-08-01T12:05:39.048Z,3.07
2017-08-01T12:08:06.544Z,3.63
2017-08-01T12:10:34.789Z,3.67
2017-08-01T12:13:02.289Z,3.77
2017-08-01T12:15:29.769Z,3.30
2017-08-01T12:17:57.240Z,3.80
2017-08-01T12:20:24.736Z,3.40
2017-08-01T12:22:52.978Z,3.67
2017-08-01T12:25:20.443Z,3.40
2017-08-01T12:27:47.935Z,3.70
2017-08-01T12:30:16.176Z,3.27
2017-08-01T12:32:43.682Z,4.50
2017-08-01T12:35:11.165Z,4.23
2017-08-01T12:37:38.630Z,3.40
2017-08-01T12:40:06.126Z,3.60
2017-08-01T12:42:33.607Z,4.30
2017-08-01T12:45:01.839Z,3.60
2017-08-01T12:47:29.316Z,4.17
2017-08-01T12:49:56.790Z,4.10
2017-08-01T12:52:25.052Z,3.73
2017-08-01T12:54:54.074Z,4.03
2017-08-01T12:57:22.320Z,4.47
2017-08-01T12:59:49.846Z,3.23
2017-08-01T13:02:17.308Z,4.37
2017-08-01T13:04:44.781Z,4.03
2017-08-01T13:07:12.292Z,3.33
2017-08-01T13:09:39.762Z,3.83
2017-08-01T13:12:07.255Z,4.03
2017-08-01T13:14:34.725Z,3.83
2017-08-01T13:17:02.216Z,4.20
2017-08-01T13:19:30.476Z,3.93
2017-08-01T13:21:58.736Z,4.30
2017-08-01T13:24:26.232Z,3.80
2017-08-01T13:26:53.727Z,4.23
2017-08-01T13:29:21.197Z,3.67
2017-08-01T13:31:48.680Z,3.93
2017-08-01T13:34:16.154Z,5.30
2017-08-01T13:36:44.409Z,4.53
2017-08-01T13:39:11.905Z,3.77
2017-08-01T13:41:39.376Z,3.73
2017-08-01T13:44:06.864Z,4.33
2017-08-01T13:46:34.329Z,3.53
2017-08-01T13:49:01.823Z,3.93
2017-08-01T13:51:29.328Z,3.80
2017-08-01T13:53:56.809Z,4.40
2017-08-01T13:56:24.272Z,3.90
2017-08-01T13:58:51.756Z,4.10
2017-08-01T14:01:19.996Z,3.83
2017-08-01T14:03:47.491Z,4.40
2017-08-01T14:06:15.755Z,3.83
2017-08-01T14:08:43.237Z,4.33
2017-08-01T14:11:10.711Z,3.80
2017-08-01T14:13:38.204Z,4.53
2017-08-01T14:16:05.667Z,3.97
2017-08-01T14:18:33.145Z,3.83
2017-08-01T14:21:00.632Z,3.80
2017-08-01T14:23:28.098Z,3.50
2017-08-01T14:25:55.641Z,4.07
2017-08-01T14:28:23.104Z,3.93
2017-08-01T14:30:50.574Z,4.23
2017-08-01T14:33:18.055Z,3.73
2017-08-01T14:35:45.524Z,4.40
2017-08-01T14:38:13.016Z,4.10
2017-08-01T14:40:41.251Z,3.87
2017-08-01T14:43:08.729Z,4.37
2017-08-01T14:45:36.229Z,3.60
2017-08-01T14:48:03.705Z,3.87
2017-08-01T14:50:31.173Z,4.03
2017-08-01T14:52:58.648Z,3.77
2017-08-01T14:55:26.117Z,3.90
2017-08-01T14:57:53.613Z,3.57
2017-08-01T15:00:21.080Z,3.63
2017-08-01T15:02:48.540Z,2.70
2017-08-01T15:05:16.032Z,3.63
2017-08-01T15:07:43.501Z,3.17
2017-08-01T15:10:10.992Z,3.67
2017-08-01T15:12:39.233Z,3.60
2017-08-01T15:15:06.735Z,3.40
2017-08-01T15:17:34.205Z,3.80
2017-08-01T15:20:01.683Z,3.90
2017-08-01T15:22:29.172Z,3.47
2017-08-01T15:24:56.653Z,3.30
2017-08-01T15:27:25.150Z,3.53
2017-08-01T15:29:53.380Z,3.47
2017-08-01T15:32:20.869Z,3.43
2017-08-01T15:34:49.148Z,3.50
2017-08-01T15:37:17.391Z,3.40
2017-08-01T15:39:45.243Z,3.40
2017-08-01T15:42:12.773Z,3.70
2017-08-01T15:44:40.357Z,3.80
2017-08-01T15:47:07.820Z,3.63
2017-08-01T15:49:35.341Z,3.67
2017-08-01T15:52:02.813Z,3.17
2017-08-01T15:54:30.349Z,3.60
2017-08-01T15:57:01.086Z,3.40
2017-08-01T15:59:29.341Z,2.73
2017-08-01T16:01:56.851Z,4.10
2017-08-01T16:04:24.337Z,4.00
2017-08-01T16:06:51.832Z,3.33
2017-08-01T16:09:20.068Z,3.90
2017-08-01T16:11:47.565Z,3.80
2017-08-01T16:14:15.819Z,3.87
2017-08-01T16:16:43.288Z,4.00
2017-08-01T16:19:10.817Z,3.97
2017-08-01T16:21:38.297Z,3.87
2017-08-01T16:24:05.820Z,3.73
2017-08-01T16:26:33.294Z,4.07
2017-08-01T16:29:00.777Z,4.13
2017-08-01T16:31:28.268Z,4.70
2017-08-01T16:33:55.760Z,4.07
2017-08-01T16:36:23.317Z,3.73
2017-08-01T16:38:50.804Z,3.70
2017-08-01T16:41:18.304Z,4.10
2017-08-01T16:43:45.780Z,5.07
2017-08-01T16:46:13.248Z,4.63
2017-08-01T16:48:40.746Z,4.73
2017-08-01T16:51:08.222Z,5.10
2017-08-01T16:53:35.748Z,5.43
2017-08-01T16:56:03.265Z,4.90
2017-08-01T16:58:30.766Z,5.60
2017-08-01T17:00:58.240Z,4.80
2017-08-01T17:03:25.737Z,5.20
2017-08-01T17:05:53.219Z,5.10
2017-08-01T17:08:21.477Z,4.80
2017-08-01T17:10:48.961Z,5.00
2017-08-01T17:13:17.231Z,4.80
2017-08-01T17:15:45.485Z,5.13
2017-08-01T17:18:12.972Z,5.00
2017-08-01T17:20:41.210Z,5.00
2017-08-01T17:23:08.697Z,5.30
2017-08-01T17:25:36.236Z,4.40
2017-08-01T17:28:03.707Z,4.50
2017-08-01T17:30:31.179Z,5.30
2017-08-01T17:32:58.675Z,4.67
2017-08-01T17:35:26.198Z,4.50
2017-08-01T17:37:53.656Z,5.03
2017-08-01T17:40:21.161Z,5.80
2017-08-01T17:42:48.630Z,5.33
2017-08-01T17:45:16.124Z,5.67
2017-08-01T17:47:43.597Z,6.40
2017-08-01T17:50:11.972Z,5.60
2017-08-01T17:52:40.572Z,5.50
2017-08-01T17:55:09.276Z,5.40
2017-08-01T17:57:36.745Z,4.97
2017-08-01T18:00:04.229Z,5.80
2017-08-01T18:02:31.697Z,5.50
2017-08-01T18:04:59.198Z,5.83
2017-08-01T18:07:26.674Z,7.07
2017-08-01T18:09:54.152Z,7.03
2017-08-01T18:12:21.696Z,7.30
2017-08-01T18:14:49.173Z,9.33
2017-08-01T18:17:16.744Z,7.60
2017-08-01T18:19:44.316Z,7.93
2017-08-01T18:22:12.643Z,7.70
2017-08-01T18:24:40.210Z,7.20
2017-08-01T18:27:07.680Z,7.90
2017-08-01T18:29:35.237Z,10.97
2017-08-01T18:32:02.712Z,10.30
2017-08-01T18:34:30.187Z,8.90
2017-08-01T18:36:57.690Z,7.90
2017-08-01T18:39:25.206Z,11.00
2017-08-01T18:41:52.744Z,12.57
2017-08-01T18:44:20.691Z,17.13
2017-08-01T18:46:48.565Z,19.43
2017-08-01T18:49:16.070Z,10.97
2017-08-01T18:51:43.571Z,9.80
2017-08-01T18:54:11.339Z,10.60
2017-08-01T18:56:39.103Z,8.80
2017-08-01T18:59:06.972Z,13.50
2017-08-01T19:01:34.849Z,10.70
2017-08-01T19:04:02.389Z,11.30
2017-08-01T19:06:29.981Z,12.03
2017-08-01T19:08:58.043Z,12.87
2017-08-01T19:11:26.625Z,12.33
2017-08-01T19:13:54.614Z,14.47
2017-08-01T19:16:22.156Z,18.20
2017-08-01T19:18:50.144Z,13.80
2017-08-01T19:21:18.115Z,14.10
2017-08-01T19:23:46.975Z,12.60
2017-08-01T19:26:14.631Z,10.10
2017-08-01T19:28:42.505Z,13.37
2017-08-01T19:31:10.371Z,15.30
2017-08-01T19:33:38.238Z,16.57
2017-08-01T19:36:05.838Z,21.73
2017-08-01T19:38:33.668Z,21.93
2017-08-01T19:41:01.191Z,28.17
2017-08-01T19:43:29.439Z,20.03
2017-08-01T19:45:56.989Z,19.20
2017-08-01T19:48:24.932Z,20.90
2017-08-01T19:50:52.900Z,20.37
2017-08-01T19:53:21.585Z,20.40
2017-08-01T19:55:49.147Z,20.17
2017-08-01T19:58:17.123Z,18.50
2017-08-01T20:00:44.710Z,20.40
2017-08-01T20:03:12.240Z,20.87
2017-08-01T20:05:39.774Z,18.40
2017-08-01T20:08:07.661Z,19.80
2017-08-01T20:10:35.631Z,19.20
2017-08-01T20:13:03.505Z,21.30
2017-08-01T20:15:31.063Z,25.87
2017-08-01T20:17:58.930Z,21.90
2017-08-01T20:20:27.508Z,26.30
2017-08-01T20:22:55.017Z,22.93
2017-08-01T20:25:22.517Z,26.77
2017-08-01T20:27:50.158Z,25.40
2017-08-01T20:30:17.673Z,28.00
2017-08-01T20:32:45.146Z,28.20
2017-08-01T20:35:12.678Z,23.37
2017-08-01T20:37:40.165Z,24.47
2017-08-01T20:40:07.709Z,30.33
2017-08-01T20:42:35.241Z,28.63
2017-08-01T20:45:02.741Z,26.67
2017-08-01T20:47:30.361Z,26.47
2017-08-01T20:49:57.856Z,25.43
2017-08-01T20:52:25.362Z,22.37
2017-08-01T20:54:52.886Z,22.80
2017-08-01T20:57:20.373Z,17.47
2017-08-01T20:59:47.852Z,16.47
2017-08-01T21:02:15.370Z,20.13
2017-08-01T21:04:43.625Z,15.40
2017-08-01T21:07:11.127Z,14.60
2017-08-01T21:09:38.639Z,14.70
2017-08-01T21:12:06.143Z,17.90
2017-08-01T21:14:33.637Z,14.07
2017-08-01T21:17:01.149Z,14.53
2017-08-01T21:19:29.433Z,13.43
2017-08-01T21:21:56.914Z,14.00
2017-08-01T21:24:24.412Z,16.70
2017-08-01T21:26:51.886Z,14.80
2017-08-01T21:29:20.136Z,17.80
2017-08-01T21:31:47.706Z,15.90
2017-08-01T21:34:15.209Z,15.40
2017-08-01T21:36:42.697Z,16.57
2017-08-01T21:39:10.192Z,13.63
2017-08-01T21:41:37.691Z,11.60
2017-08-01T21:44:05.190Z,10.87
2017-08-01T21:46:32.681Z,10.30
2017-08-01T21:49:00.977Z,11.90
2017-08-01T21:51:28.465Z,16.10
2017-08-01T21:53:56.042Z,10.73
2017-08-01T21:56:23.542Z,11.57
2017-08-01T21:58:51.813Z,8.10
2017-08-01T22:01:20.072Z,10.37
2017-08-01T22:03:47.557Z,12.03
2017-08-01T22:06:15.064Z,16.30
2017-08-01T22:08:42.540Z,12.90
2017-08-01T22:11:10.024Z,12.33
2017-08-01T22:13:38.294Z,14.60
2017-08-01T22:16:06.524Z,15.33
2017-08-01T22:18:34.035Z,15.40
2017-08-01T22:21:02.312Z,11.83
2017-08-01T22:23:30.561Z,14.83
2017-08-01T22:25:58.058Z,15.30
2017-08-01T22:28:25.644Z,16.97
2017-08-01T22:30:53.133Z,13.57
2017-08-01T22:33:20.668Z,14.67
2017-08-01T22:35:48.172Z,15.67
2017-08-01T22:38:16.439Z,13.70
2017-08-01T22:40:43.916Z,14.27
2017-08-01T22:43:12.194Z,12.13
2017-08-01T22:45:40.444Z,12.80
2017-08-01T22:48:07.929Z,13.40
2017-08-01T22:50:35.436Z,14.40
2017-08-01T22:53:02.924Z,15.53
2017-08-01T22:55:30.411Z,11.90
2017-08-01T22:57:57.927Z,12.77
2017-08-01T23:00:25.414Z,12.93
2017-08-01T23:02:52.917Z,12.40
2017-08-01T23:05:20.398Z,10.67
2017-08-01T23:07:47.881Z,11.23
2017-08-01T23:10:15.421Z,13.33
2017-08-01T23:12:43.688Z,12.27
2017-08-01T23:15:11.188Z,13.37
2017-08-01T23:17:38.693Z,12.53
2017-08-01T23:20:06.217Z,12.37
2017-08-01T23:22:33.711Z,10.67
2017-08-01T23:25:01.195Z,8.50
2017-08-01T23:27:28.671Z,8.70
2017-08-01T23:29:56.177Z,8.33
2017-08-01T23:32:23.676Z,11.17
2017-08-01T23:34:51.152Z,15.00
2017-08-01T23:37:18.652Z,11.63
2017-08-01T23:39:46.128Z,11.30
2017-08-01T23:42:13.640Z,12.33
2017-08-01T23:44:41.873Z,9.37
2017-08-01T23:47:09.356Z,15.40
2017-08-01T23:49:37.625Z,11.87
2017-08-01T23:52:05.128Z,12.60
2017-08-01T23:54:32.604Z,18.77
2017-08-01T23:57:00.109Z,15.17
2017-08-01T23:59:28.356Z,12.60
